Bayway, Texas
Current Conditions -  °F | °C
As of 3:50 PM on Monday 24 Nov 2014 (Local Time) from KEFD Reporting Station
Scattered Clouds Scattered Clouds  
Wind Chill: 64°   Ceiling: Unl
Heat Index: 64°   Visibility: 10mi
Dew Point: 34°   Wind: 14mph
Humidity: 32%   Direction: 320°NW
Pressure: 30.01"   Gusts: NA
Location:  29.7803°N, 94.894°W
Report Text: KEFD 242150Z 32012KT 10SM SCT150 18/01 A3001
Loading
Personal Weather Stations






























Interactive Weather Map New forecast layout! Learn more

10-Day Weather Forecast

Advertisements
Track Severe Weather on mobile